Carrollton, Indiana
Current Conditions -  °F | °C
As of 5:53 PM on Thursday 18 Dec 2014 (Local Time) from KGEZ Reporting Station
Overcast Overcast  
Wind Chill: 29°   Ceiling: 6500
Heat Index: 29°   Visibility: 10mi
Dew Point: 22°   Wind: 0mph
Humidity: 75%   Direction: NA
Pressure: 30.22"   Gusts: NA
Location:  39.71°N, 85.8206°W
Report Text: KGEZ 182253Z AUTO 00000KT 10SM FEW018 SCT023 OVC065 M02/M06 A3022 RMK AO2 SLP243 T10171056
Loading
Personal Weather Stations






























Interactive Weather Map New forecast layout! Learn more

10-Day Weather Forecast

Advertisements
Track Severe Weather on mobile